To NAV CANADA Home Page Login to a new session Search on AWWS site Feedback and Comments Disclaimer Vers la page française équivalente Tips FAQ What's new on the site To the Forecasts and Observations / NOTAM section To "File a Flight Plan" website Publications and other links Update of the User's profile FIC Telephone Numbers My Weather Data Folder Route Weather Data Regional Weather Data Local Weather Data To the Forecasts and Observations / NOTAM section
Request Generated 08/02/2015 at 10:16:35 UTC . Weather information available at that time is displayed.

METAR/TAF

KELOWNA/BC    (show WxCam)

METAR CYLW 021000Z AUTO VRB03KT 9SM FEW240 15/07 A2991 RMK SLP118
DENSITY ALT 1700FT=
METAR CYLW 020900Z AUTO VRB02KT 9SM CLR 16/07 A2990 RMK SLP116
DENSITY ALT 1800FT=
METAR CYLW 020800Z AUTO 04003KT 010V100 9SM CLR 14/08 A2989 RMK
SLP115 DENSITY ALT 1600FT=

TAF CYLW 020638Z 0207/0219 VRB03KT P6SM SKC
RMK FCST BASED ON AUTO OBS. NXT FCST BY 021300Z=
Your time UTC time
Weather data provided by Environment Canada and NAV CANADA